Traskwood, Arkansas
Current Conditions -  °F | °C
As of 3:53 PM on Friday 31 Oct 2014 (Local Time) from KHOT Reporting Station
Clear Clear  
Wind Chill: 63°   Ceiling: Unl
Heat Index: 63°   Visibility: 10mi
Dew Point: 38°   Wind: 9mph
Humidity: 40%   Direction: 340°NNW
Pressure: 30.22"   Gusts: 17mph
Location:  34.45°N, 92.65°W
Report Text: KHOT 312053Z AUTO 34008G15KT 10SM CLR 17/03 A3022 RMK AO2 SLP230 T01720033 55010
Loading
Personal Weather Stations






























Interactive Weather Map
Tropical Storm Tracking
New forecast layout! Learn more

10-Day Weather Forecast

Advertisements
Track Severe Weather on mobile